createdAt,value
2023-01-04T00:01:43.909Z,4.88
2023-01-04T00:04:29.336Z,6.88
2023-01-04T00:07:14.802Z,5.00
2023-01-04T00:10:00.169Z,6.28
2023-01-04T00:12:45.449Z,5.65
2023-01-04T00:15:30.752Z,7.28
2023-01-04T00:18:16.140Z,6.20
2023-01-04T00:21:08.448Z,6.03
2023-01-04T00:23:56.185Z,4.63
2023-01-04T00:26:41.862Z,6.03
2023-01-04T00:29:27.044Z,6.18
2023-01-04T00:32:12.440Z,4.57
2023-01-04T00:34:57.745Z,4.25
2023-01-04T00:37:46.948Z,5.53
2023-01-04T00:40:37.132Z,5.43
2023-01-04T00:43:22.496Z,4.43
2023-01-04T00:46:11.431Z,4.55
2023-01-04T00:49:00.504Z,3.45
2023-01-04T00:51:46.107Z,5.10
2023-01-04T00:54:31.567Z,3.30
2023-01-04T00:57:16.932Z,2.90
2023-01-04T01:00:02.332Z,3.70
2023-01-04T01:02:47.865Z,4.68
2023-01-04T01:05:35.363Z,4.60
2023-01-04T01:08:26.869Z,3.00
2023-01-04T01:11:12.181Z,4.65
2023-01-04T01:13:58.692Z,3.72
2023-01-04T01:16:55.288Z,3.67
2023-01-04T01:19:42.229Z,2.83
2023-01-04T01:22:27.818Z,2.30
2023-01-04T01:25:13.207Z,2.60
2023-01-04T01:27:58.847Z,4.03
2023-01-04T01:30:44.604Z,2.50
2023-01-04T01:33:30.055Z,2.60
2023-01-04T01:36:16.962Z,2.90
2023-01-04T01:39:02.223Z,3.22
2023-01-04T01:41:47.985Z,2.97
2023-01-04T01:44:42.256Z,4.50
2023-01-04T01:47:49.442Z,4.15
2023-01-04T01:50:45.985Z,3.55
2023-01-04T01:53:35.481Z,4.30
2023-01-04T01:56:21.198Z,4.68
2023-01-04T01:59:08.614Z,4.35
2023-01-04T02:01:54.127Z,4.15
2023-01-04T02:04:43.057Z,5.15
2023-01-04T02:07:29.095Z,6.50
2023-01-04T02:10:15.176Z,5.53
2023-01-04T02:13:06.493Z,5.63
2023-01-04T02:16:09.483Z,6.40
2023-01-04T02:22:15.222Z,5.78
2023-01-04T02:25:37.780Z,6.15
2023-01-04T02:28:54.124Z,6.80
2023-01-04T02:31:45.362Z,7.15
2023-01-04T02:35:02.854Z,7.35
2023-01-04T02:38:06.293Z,8.07
2023-01-04T02:41:16.977Z,9.93
2023-01-04T02:44:32.972Z,7.55
2023-01-04T02:47:54.303Z,9.02
2023-01-04T02:50:56.026Z,7.10
2023-01-04T02:53:42.071Z,8.40
2023-01-04T02:56:53.216Z,7.50
2023-01-04T03:00:06.042Z,10.32
2023-01-04T03:03:38.837Z,7.40
2023-01-04T03:06:35.087Z,7.97
2023-01-04T03:09:26.690Z,7.55
2023-01-04T03:12:33.117Z,7.05
2023-01-04T03:15:25.427Z,8.50
2023-01-04T03:21:09.644Z,6.10
2023-01-04T03:24:17.034Z,6.90
2023-01-04T03:27:25.507Z,7.03
2023-01-04T03:30:32.296Z,6.55
2023-01-04T03:33:37.359Z,8.50
2023-01-04T03:36:56.003Z,7.07
2023-01-04T03:40:19.153Z,7.65
2023-01-04T03:43:35.531Z,5.95
2023-01-04T03:47:02.116Z,5.82
2023-01-04T03:49:58.045Z,5.57
2023-01-04T03:52:45.994Z,6.45
2023-01-04T03:55:33.225Z,6.18
2023-01-04T03:58:19.979Z,6.57
2023-01-04T04:01:06.356Z,7.35
2023-01-04T04:04:11.178Z,6.75
2023-01-04T04:07:15.011Z,6.07
2023-01-04T04:10:00.640Z,6.07
2023-01-04T04:12:47.977Z,7.07
2023-01-04T04:15:33.718Z,5.50
2023-01-04T04:18:19.172Z,7.72
2023-01-04T04:21:04.902Z,6.95
2023-01-04T04:23:50.432Z,6.10
2023-01-04T04:26:35.758Z,7.78
2023-01-04T04:29:21.895Z,6.50
2023-01-04T04:32:07.319Z,7.20
2023-01-04T04:34:52.717Z,6.55
2023-01-04T04:37:38.457Z,11.32
2023-01-04T04:40:42.359Z,10.00
2023-01-04T04:43:27.725Z,7.22
2023-01-04T04:46:13.347Z,9.40
2023-01-04T04:48:59.046Z,9.82
2023-01-04T04:51:45.832Z,9.32
2023-01-04T04:54:31.537Z,10.10
2023-01-04T04:57:16.816Z,9.73
2023-01-04T05:00:02.728Z,9.85
2023-01-04T05:02:48.056Z,10.52
2023-01-04T05:05:33.370Z,7.38
2023-01-04T05:08:18.685Z,9.93
2023-01-04T05:11:09.112Z,9.38
2023-01-04T05:13:54.448Z,8.00
2023-01-04T05:16:40.232Z,4.85
2023-01-04T05:19:25.911Z,5.50
2023-01-04T05:22:11.494Z,7.57
2023-01-04T05:24:56.883Z,5.65
2023-01-04T05:27:43.090Z,7.75
2023-01-04T05:30:47.123Z,4.82
2023-01-04T05:33:32.816Z,4.70
2023-01-04T05:36:17.897Z,3.70
2023-01-04T05:39:03.554Z,2.85
2023-01-04T05:42:07.475Z,3.60
2023-01-04T05:44:54.679Z,3.50
2023-01-04T05:47:40.347Z,2.90
2023-01-04T05:50:25.648Z,2.38
2023-01-04T05:53:11.750Z,2.75
2023-01-04T05:55:57.270Z,3.90
2023-01-04T05:58:42.714Z,4.35
2023-01-04T06:01:28.566Z,5.47
2023-01-04T06:04:13.905Z,4.00
2023-01-04T06:06:59.451Z,4.25
2023-01-04T06:09:44.804Z,4.05
2023-01-04T06:12:30.142Z,3.45
2023-01-04T06:15:16.103Z,3.15
2023-01-04T06:18:01.913Z,7.88
2023-01-04T06:20:46.947Z,4.25
2023-01-04T06:23:32.360Z,3.60
2023-01-04T06:26:17.775Z,6.18
2023-01-04T06:29:03.542Z,7.95
2023-01-04T06:31:48.818Z,5.65
2023-01-04T06:34:34.373Z,6.07
2023-01-04T06:37:19.753Z,7.85
2023-01-04T06:40:06.084Z,6.57
2023-01-04T06:42:51.749Z,5.85
2023-01-04T06:45:37.414Z,7.07
2023-01-04T06:48:23.162Z,8.60
2023-01-04T06:51:08.357Z,8.13
2023-01-04T06:53:53.795Z,9.82
2023-01-04T06:56:40.474Z,10.68
2023-01-04T06:59:25.835Z,6.72
2023-01-04T07:02:15.207Z,6.57
2023-01-04T07:05:00.923Z,5.85
2023-01-04T07:07:46.405Z,9.57
2023-01-04T07:10:31.625Z,7.85
2023-01-04T07:13:17.413Z,7.55
2023-01-04T07:16:02.662Z,7.68
2023-01-04T07:18:48.389Z,8.30
2023-01-04T07:21:33.593Z,7.82
2023-01-04T07:24:20.503Z,10.07
2023-01-04T07:27:07.673Z,8.63
2023-01-04T07:29:53.150Z,8.73
2023-01-04T07:32:38.706Z,10.20
2023-01-04T07:35:24.832Z,11.75
2023-01-04T07:38:10.470Z,8.63
2023-01-04T07:40:57.172Z,9.98
2023-01-04T07:43:42.414Z,8.80
2023-01-04T07:46:28.417Z,5.93
2023-01-04T07:49:18.012Z,8.77
2023-01-04T07:52:03.956Z,6.57
2023-01-04T07:54:49.172Z,6.90
2023-01-04T07:57:34.797Z,11.13
2023-01-04T08:00:20.420Z,7.70
2023-01-04T08:03:06.145Z,5.57
2023-01-04T08:05:51.755Z,6.25
2023-01-04T08:08:37.217Z,4.43
2023-01-04T08:11:24.189Z,6.93
2023-01-04T08:14:09.619Z,4.85
2023-01-04T08:16:54.823Z,6.50
2023-01-04T08:19:40.346Z,6.75
2023-01-04T08:22:25.804Z,3.90
2023-01-04T08:25:11.697Z,6.93
2023-01-04T08:27:56.997Z,5.05
2023-01-04T08:30:42.654Z,5.60
2023-01-04T08:33:27.981Z,6.70
2023-01-04T08:36:27.348Z,8.38
2023-01-04T08:39:13.012Z,9.82
2023-01-04T08:42:06.726Z,8.82
2023-01-04T08:45:01.576Z,8.13
2023-01-04T08:47:47.507Z,8.90
2023-01-04T08:50:32.804Z,9.52
2023-01-04T08:53:18.543Z,11.38
2023-01-04T08:56:04.459Z,12.43
2023-01-04T08:58:50.162Z,13.45
2023-01-04T09:01:36.154Z,12.55
2023-01-04T09:04:21.656Z,16.63
2023-01-04T09:07:07.158Z,14.75
2023-01-04T09:09:52.871Z,13.68
2023-01-04T09:12:38.498Z,13.93
2023-01-04T09:15:24.037Z,16.48
2023-01-04T09:18:31.885Z,12.07
2023-01-04T09:21:20.040Z,18.05
2023-01-04T09:24:05.544Z,14.50
2023-01-04T09:26:51.064Z,16.77
2023-01-04T09:29:36.376Z,16.83
2023-01-04T09:32:22.227Z,13.15
2023-01-04T09:35:08.241Z,16.08
2023-01-04T09:37:54.919Z,23.55
2023-01-04T09:40:52.429Z,16.65
2023-01-04T09:43:46.618Z,19.65
2023-01-04T09:46:46.152Z,20.60
2023-01-04T09:49:39.429Z,17.08
2023-01-04T09:52:39.530Z,21.85
2023-01-04T09:55:40.339Z,17.83
2023-01-04T09:58:36.020Z,19.48
2023-01-04T10:01:28.744Z,24.08
2023-01-04T10:04:25.692Z,23.10
2023-01-04T10:07:28.672Z,27.83
2023-01-04T10:10:35.719Z,23.70
2023-01-04T10:13:43.774Z,24.17
2023-01-04T10:17:23.750Z,24.00
2023-01-04T10:24:18.297Z,22.27
2023-01-04T10:27:18.597Z,18.67
2023-01-04T10:30:25.579Z,22.20
2023-01-04T10:33:18.161Z,18.13
2023-01-04T10:36:03.581Z,16.50
2023-01-04T10:39:21.826Z,11.38
2023-01-04T10:42:18.325Z,14.20
2023-01-04T10:45:23.656Z,14.18
2023-01-04T10:48:27.960Z,11.23
2023-01-04T10:51:17.268Z,11.38
2023-01-04T10:54:12.638Z,10.23
2023-01-04T10:57:06.891Z,9.00
2023-01-04T11:00:15.975Z,8.70
2023-01-04T11:03:17.930Z,8.85
2023-01-04T11:06:21.758Z,8.57
2023-01-04T11:09:19.641Z,7.60
2023-01-04T11:12:12.759Z,8.27
2023-01-04T11:14:58.519Z,12.80
2023-01-04T11:17:44.011Z,7.57
2023-01-04T11:20:37.775Z,9.52
2023-01-04T11:23:23.665Z,10.57
2023-01-04T11:26:22.515Z,7.43
2023-01-04T11:29:29.070Z,9.50
2023-01-04T11:32:16.567Z,6.45
2023-01-04T11:35:02.251Z,12.27
2023-01-04T11:37:47.799Z,10.48
2023-01-04T11:40:33.671Z,10.07
2023-01-04T11:43:21.354Z,10.23
2023-01-04T11:46:17.072Z,13.93
2023-01-04T11:49:02.667Z,14.98
2023-01-04T11:51:48.195Z,12.85
2023-01-04T11:54:33.665Z,15.25
2023-01-04T11:57:20.682Z,15.55
2023-01-04T12:00:16.279Z,14.27
2023-01-04T12:03:16.039Z,13.80
2023-01-04T12:06:02.565Z,11.63
2023-01-04T12:08:48.162Z,15.05
2023-01-04T12:11:36.253Z,14.48
2023-01-04T12:14:28.537Z,15.75
2023-01-04T12:17:23.396Z,13.52
2023-01-04T12:20:19.629Z,13.27
2023-01-04T12:23:05.758Z,12.30
2023-01-04T12:25:52.538Z,13.32
2023-01-04T12:28:44.165Z,13.02
2023-01-04T12:31:31.995Z,15.63
2023-01-04T12:34:24.020Z,17.27
2023-01-04T12:37:10.114Z,17.02
2023-01-04T12:39:55.760Z,15.05
2023-01-04T12:43:16.227Z,11.90
2023-01-04T12:46:49.477Z,15.05
2023-01-04T12:49:50.700Z,18.38
2023-01-04T12:53:10.069Z,14.07
2023-01-04T12:55:54.746Z,16.27
2023-01-04T12:59:15.265Z,10.88
2023-01-04T13:02:17.797Z,15.05
2023-01-04T13:05:54.787Z,10.50
2023-01-04T13:08:24.717Z,11.20
2023-01-04T13:11:43.191Z,12.98
2023-01-04T13:14:50.983Z,13.15
2023-01-04T13:17:40.252Z,13.93
2023-01-04T13:20:28.953Z,12.80
2023-01-04T13:23:14.606Z,11.88
2023-01-04T13:26:28.825Z,11.32
2023-01-04T13:29:26.018Z,15.10
2023-01-04T13:32:14.605Z,14.43
2023-01-04T13:35:08.399Z,12.43
2023-01-04T13:38:00.939Z,12.13
2023-01-04T13:40:49.527Z,11.90
2023-01-04T13:43:38.074Z,13.65
2023-01-04T13:46:26.620Z,12.18
2023-01-04T13:49:16.346Z,11.18
2023-01-04T13:52:46.631Z,13.48
2023-01-04T13:55:30.630Z,12.63
2023-01-04T13:58:19.716Z,10.90
2023-01-04T14:01:22.949Z,14.90
2023-01-04T14:04:24.450Z,15.68
2023-01-04T14:07:09.913Z,13.88
2023-01-04T14:09:59.905Z,12.80
2023-01-04T14:12:46.826Z,14.50
2023-01-04T14:15:33.831Z,12.82
2023-01-04T14:18:28.975Z,16.90
2023-01-04T14:21:17.124Z,12.98
2023-01-04T14:24:02.409Z,15.55
2023-01-04T14:26:47.792Z,15.15
2023-01-04T14:29:34.390Z,13.23
2023-01-04T14:32:19.721Z,11.13
2023-01-04T14:35:14.326Z,12.57
2023-01-04T14:38:05.772Z,12.07
2023-01-04T14:40:51.049Z,12.35
2023-01-04T14:43:43.719Z,11.02
2023-01-04T14:46:31.142Z,14.07
2023-01-04T14:49:17.470Z,12.75
2023-01-04T14:52:10.934Z,14.13
2023-01-04T14:54:56.152Z,15.02
2023-01-04T14:57:44.116Z,10.50
2023-01-04T15:00:29.699Z,15.05
2023-01-04T15:03:15.243Z,14.10
2023-01-04T15:06:00.658Z,17.00
2023-01-04T15:08:46.233Z,13.98
2023-01-04T15:11:32.129Z,14.68
2023-01-04T15:14:19.262Z,11.95
2023-01-04T15:17:04.876Z,18.30
2023-01-04T15:19:50.404Z,14.98
2023-01-04T15:22:35.972Z,17.38
2023-01-04T15:25:21.108Z,14.27
2023-01-04T15:28:07.287Z,13.00
2023-01-04T15:30:52.507Z,16.67
2023-01-04T15:33:38.809Z,17.17
2023-01-04T15:36:24.361Z,16.15
2023-01-04T15:39:14.211Z,15.25
2023-01-04T15:42:18.256Z,13.95
2023-01-04T15:45:04.599Z,14.05
2023-01-04T15:47:51.127Z,14.05
2023-01-04T15:50:39.155Z,13.75
2023-01-04T15:53:24.345Z,23.02
2023-01-04T15:56:12.819Z,16.17
2023-01-04T15:58:58.194Z,13.23
2023-01-04T16:01:43.645Z,13.27
2023-01-04T16:04:29.403Z,17.38
2023-01-04T16:07:14.975Z,15.90
2023-01-04T16:10:00.468Z,20.33
2023-01-04T16:12:49.861Z,15.63
2023-01-04T16:15:38.604Z,22.38
2023-01-04T16:18:28.883Z,19.17
2023-01-04T16:21:22.871Z,20.60
2023-01-04T16:24:35.738Z,14.77
2023-01-04T16:27:15.957Z,19.33
2023-01-04T16:30:03.134Z,21.33
2023-01-04T16:32:48.561Z,15.05
2023-01-04T16:35:34.370Z,20.58
2023-01-04T16:38:19.712Z,19.58
2023-01-04T16:41:07.021Z,21.98
2023-01-04T16:43:55.374Z,23.23
2023-01-04T16:46:42.134Z,23.02
2023-01-04T16:49:27.370Z,24.05
2023-01-04T16:52:13.131Z,23.88
2023-01-04T16:54:58.116Z,20.33
2023-01-04T16:57:43.794Z,15.43
2023-01-04T17:00:29.309Z,21.42
2023-01-04T17:03:15.002Z,19.98
2023-01-04T17:06:00.231Z,19.70
2023-01-04T17:08:47.370Z,20.25
2023-01-04T17:14:40.768Z,21.63
2023-01-04T17:17:26.489Z,22.75
2023-01-04T17:20:12.324Z,19.33
2023-01-04T17:22:58.267Z,20.33
2023-01-04T17:25:43.406Z,26.70
2023-01-04T17:28:29.258Z,22.27
2023-01-04T17:31:23.907Z,20.65
2023-01-04T17:34:22.636Z,23.02
2023-01-04T17:37:08.978Z,23.30
2023-01-04T17:39:54.819Z,22.13
2023-01-04T17:42:42.197Z,22.15
2023-01-04T17:45:27.966Z,23.05
2023-01-04T17:48:13.254Z,21.48
2023-01-04T17:51:20.237Z,26.40
2023-01-04T17:54:06.734Z,25.40
2023-01-04T17:56:51.892Z,26.60
2023-01-04T17:59:37.304Z,21.45
2023-01-04T18:02:22.775Z,30.58
2023-01-04T18:05:08.516Z,29.85
2023-01-04T18:07:53.630Z,23.45
2023-01-04T18:11:06.341Z,31.15
2023-01-04T18:13:45.672Z,29.88
2023-01-04T18:16:31.508Z,31.52
2023-01-04T18:19:17.210Z,33.35
2023-01-04T18:22:03.249Z,29.35
2023-01-04T18:24:48.781Z,31.85
2023-01-04T18:27:34.309Z,31.13
2023-01-04T18:30:20.150Z,33.85
2023-01-04T18:33:05.267Z,38.15
2023-01-04T18:35:50.805Z,29.55
2023-01-04T18:38:36.511Z,30.55
2023-01-04T18:41:22.669Z,27.90
2023-01-04T18:47:16.397Z,31.13
2023-01-04T18:50:02.537Z,30.27
2023-01-04T18:52:48.318Z,30.27
2023-01-04T18:55:33.758Z,33.05
2023-01-04T18:58:19.221Z,33.25
2023-01-04T19:01:07.455Z,36.33
2023-01-04T19:03:53.061Z,30.48
2023-01-04T19:06:40.172Z,30.08
2023-01-04T19:09:25.667Z,21.48
2023-01-04T19:12:11.167Z,29.75
2023-01-04T19:14:56.615Z,30.90
2023-01-04T19:17:41.859Z,29.73
2023-01-04T19:20:27.418Z,28.50
2023-01-04T19:23:13.202Z,31.35
2023-01-04T19:25:58.745Z,29.23
2023-01-04T19:28:43.936Z,27.33
2023-01-04T19:31:29.301Z,27.13
2023-01-04T19:34:14.843Z,29.48
2023-01-04T19:37:00.672Z,27.20
2023-01-04T19:39:46.181Z,26.33
2023-01-04T19:42:31.665Z,29.98
2023-01-04T19:45:17.523Z,30.25
2023-01-04T19:48:02.987Z,28.35
2023-01-04T19:50:48.589Z,33.65
2023-01-04T19:53:34.112Z,30.20
2023-01-04T19:56:19.457Z,32.38
2023-01-04T19:59:06.271Z,31.75
2023-01-04T20:01:51.736Z,32.20
2023-01-04T20:04:37.255Z,39.28
2023-01-04T20:07:22.581Z,34.25
2023-01-04T20:10:14.040Z,26.80
2023-01-04T20:12:59.715Z,38.75
2023-01-04T20:15:44.949Z,35.10
2023-01-04T20:18:31.319Z,30.90
2023-01-04T20:21:16.540Z,31.40
2023-01-04T20:24:02.076Z,40.80
2023-01-04T20:26:47.395Z,30.65
2023-01-04T20:29:33.729Z,35.28
2023-01-04T20:32:19.446Z,37.20
2023-01-04T20:35:05.520Z,31.02
2023-01-04T20:37:54.524Z,33.95
2023-01-04T20:40:40.660Z,26.67
2023-01-04T20:43:36.242Z,37.50
2023-01-04T20:46:25.152Z,35.67
2023-01-04T20:49:10.467Z,37.45
2023-01-04T20:51:56.084Z,32.67
2023-01-04T20:54:41.447Z,37.88
2023-01-04T20:57:26.901Z,37.55
2023-01-04T21:00:13.092Z,29.13
2023-01-04T21:02:58.969Z,38.65
2023-01-04T21:05:45.329Z,29.30
2023-01-04T21:08:31.078Z,27.58
2023-01-04T21:11:16.237Z,27.70
2023-01-04T21:14:04.466Z,34.72
2023-01-04T21:16:49.457Z,34.58
2023-01-04T21:19:34.825Z,32.08
2023-01-04T21:22:22.578Z,32.08
2023-01-04T21:25:08.825Z,24.33
2023-01-04T21:27:54.324Z,27.65
2023-01-04T21:30:41.639Z,32.67
2023-01-04T21:33:26.841Z,33.25
2023-01-04T21:36:14.706Z,32.38
2023-01-04T21:39:00.151Z,28.85
2023-01-04T21:41:48.166Z,34.08
2023-01-04T21:44:33.689Z,26.92
2023-01-04T21:47:19.094Z,40.47
2023-01-04T21:50:05.492Z,34.92
2023-01-04T21:52:50.698Z,30.67
2023-01-04T21:55:36.251Z,33.30
2023-01-04T21:58:24.523Z,34.47
2023-01-04T22:01:12.213Z,29.50
2023-01-04T22:03:57.908Z,36.05
2023-01-04T22:06:43.260Z,30.85
2023-01-04T22:09:28.793Z,31.95
2023-01-04T22:12:15.005Z,31.50
2023-01-04T22:15:00.170Z,30.92
2023-01-04T22:17:45.594Z,32.63
2023-01-04T22:20:30.882Z,31.42
2023-01-04T22:23:16.472Z,35.25
2023-01-04T22:26:02.315Z,31.05
2023-01-04T22:28:47.690Z,38.67
2023-01-04T22:31:33.409Z,35.25
2023-01-04T22:34:18.803Z,39.17
2023-01-04T22:37:04.536Z,28.60
2023-01-04T22:39:49.984Z,37.85
2023-01-04T22:42:35.247Z,31.30
2023-01-04T22:45:20.806Z,39.17
2023-01-04T22:48:06.505Z,36.95
2023-01-04T22:50:51.961Z,39.33
2023-01-04T22:53:37.902Z,27.38
2023-01-04T22:56:23.882Z,39.75
2023-01-04T22:59:09.714Z,32.45
2023-01-04T23:01:55.252Z,40.60
2023-01-04T23:04:40.712Z,35.35
2023-01-04T23:07:26.144Z,37.15
2023-01-04T23:10:11.499Z,31.60
2023-01-04T23:12:56.750Z,31.80
2023-01-04T23:15:42.201Z,37.22
2023-01-04T23:18:27.607Z,34.78
2023-01-04T23:21:16.190Z,32.00
2023-01-04T23:24:02.150Z,32.28
2023-01-04T23:26:47.803Z,36.33
2023-01-04T23:29:33.510Z,30.30
2023-01-04T23:32:19.119Z,38.13
2023-01-04T23:35:04.587Z,35.38
2023-01-04T23:37:49.975Z,33.88
2023-01-04T23:40:35.388Z,33.50
2023-01-04T23:43:20.748Z,34.53
2023-01-04T23:46:14.408Z,27.60
2023-01-04T23:48:59.930Z,25.40
2023-01-04T23:51:45.490Z,31.67
2023-01-04T23:54:31.222Z,31.27
2023-01-04T23:57:16.310Z,40.78
